sensor_id;sensor_type;location;lat;lon;timestamp;pressure;altitude;pressure_sealevel;temperature;humidity
24651;BME280;12783;48.824;8.662;2024-01-07T00:00:07;59356.41;;;-144.89;100.00
24651;BME280;12783;48.824;8.662;2024-01-07T00:02:34;59356.41;;;-144.89;100.00
24651;BME280;12783;48.824;8.662;2024-01-07T00:05:01;59356.41;;;-144.89;100.00
24651;BME280;12783;48.824;8.662;2024-01-07T00:07:28;59356.41;;;-144.89;100.00
24651;BME280;12783;48.824;8.662;2024-01-07T00:09:55;59356.41;;;-144.89;100.00
24651;BME280;12783;48.824;8.662;2024-01-07T00:12:22;59356.41;;;-144.89;100.00
24651;BME280;12783;48.824;8.662;2024-01-07T00:14:51;59356.41;;;-144.89;100.00
24651;BME280;12783;48.824;8.662;2024-01-07T00:17:18;59356.41;;;-144.89;100.00
24651;BME280;12783;48.824;8.662;2024-01-07T00:19:45;59356.41;;;-144.89;100.00
24651;BME280;12783;48.824;8.662;2024-01-07T00:22:12;59356.41;;;-144.89;100.00
24651;BME280;12783;48.824;8.662;2024-01-07T00:24:39;59356.41;;;-144.89;100.00
24651;BME280;12783;48.824;8.662;2024-01-07T00:27:06;59356.41;;;-144.89;100.00
24651;BME280;12783;48.824;8.662;2024-01-07T00:29:35;59356.41;;;-144.89;100.00
24651;BME280;12783;48.824;8.662;2024-01-07T00:32:02;59356.41;;;-144.89;100.00
24651;BME280;12783;48.824;8.662;2024-01-07T00:34:29;59356.41;;;-144.89;100.00
24651;BME280;12783;48.824;8.662;2024-01-07T00:36:56;59356.41;;;-144.89;100.00
24651;BME280;12783;48.824;8.662;2024-01-07T00:39:24;59356.41;;;-144.89;100.00
24651;BME280;12783;48.824;8.662;2024-01-07T00:41:50;59356.41;;;-144.89;100.00
24651;BME280;12783;48.824;8.662;2024-01-07T00:44:17;59356.41;;;-144.89;100.00
24651;BME280;12783;48.824;8.662;2024-01-07T00:46:44;59356.41;;;-144.89;100.00
24651;BME280;12783;48.824;8.662;2024-01-07T00:49:14;59356.41;;;-144.89;100.00
24651;BME280;12783;48.824;8.662;2024-01-07T00:51:42;59356.41;;;-144.89;100.00
24651;BME280;12783;48.824;8.662;2024-01-07T00:54:09;59356.41;;;-144.89;100.00
24651;BME280;12783;48.824;8.662;2024-01-07T00:56:36;59356.41;;;-144.89;100.00
24651;BME280;12783;48.824;8.662;2024-01-07T00:59:03;59356.41;;;-144.89;100.00
24651;BME280;12783;48.824;8.662;2024-01-07T01:01:31;59356.41;;;-144.89;100.00
24651;BME280;12783;48.824;8.662;2024-01-07T01:03:58;59356.41;;;-144.89;100.00
24651;BME280;12783;48.824;8.662;2024-01-07T01:06:25;59356.41;;;-144.89;100.00
24651;BME280;12783;48.824;8.662;2024-01-07T01:08:52;59356.41;;;-144.89;100.00
24651;BME280;12783;48.824;8.662;2024-01-07T01:11:19;59356.41;;;-144.89;100.00
24651;BME280;12783;48.824;8.662;2024-01-07T01:13:46;59356.41;;;-144.89;100.00
24651;BME280;12783;48.824;8.662;2024-01-07T01:16:13;59356.41;;;-144.89;100.00
24651;BME280;12783;48.824;8.662;2024-01-07T01:18:40;59356.41;;;-144.89;100.00
24651;BME280;12783;48.824;8.662;2024-01-07T01:21:07;59356.41;;;-144.89;100.00
24651;BME280;12783;48.824;8.662;2024-01-07T01:23:34;59356.41;;;-144.89;100.00
24651;BME280;12783;48.824;8.662;2024-01-07T01:26:01;59356.41;;;-144.89;100.00
24651;BME280;12783;48.824;8.662;2024-01-07T01:28:28;59356.41;;;-144.89;100.00
24651;BME280;12783;48.824;8.662;2024-01-07T01:30:55;59356.41;;;-144.89;100.00
24651;BME280;12783;48.824;8.662;2024-01-07T01:33:22;59356.41;;;-144.89;100.00
24651;BME280;12783;48.824;8.662;2024-01-07T01:35:49;59356.41;;;-144.89;100.00
24651;BME280;12783;48.824;8.662;2024-01-07T01:38:16;59356.41;;;-144.89;100.00
24651;BME280;12783;48.824;8.662;2024-01-07T01:40:43;59356.41;;;-144.89;100.00
24651;BME280;12783;48.824;8.662;2024-01-07T01:43:10;59356.41;;;-144.89;100.00
24651;BME280;12783;48.824;8.662;2024-01-07T01:45:37;59356.41;;;-144.89;100.00
24651;BME280;12783;48.824;8.662;2024-01-07T01:48:04;59356.41;;;-144.89;100.00
24651;BME280;12783;48.824;8.662;2024-01-07T01:50:32;59356.41;;;-144.89;100.00
24651;BME280;12783;48.824;8.662;2024-01-07T01:52:59;59356.41;;;-144.89;100.00
24651;BME280;12783;48.824;8.662;2024-01-07T01:55:26;59356.41;;;-144.89;100.00
24651;BME280;12783;48.824;8.662;2024-01-07T01:57:54;59356.41;;;-144.89;100.00
24651;BME280;12783;48.824;8.662;2024-01-07T02:00:22;59356.41;;;-144.89;100.00
24651;BME280;12783;48.824;8.662;2024-01-07T02:02:50;59356.41;;;-144.89;100.00
24651;BME280;12783;48.824;8.662;2024-01-07T02:05:17;59356.41;;;-144.89;100.00
24651;BME280;12783;48.824;8.662;2024-01-07T02:07:44;59356.41;;;-144.89;100.00
24651;BME280;12783;48.824;8.662;2024-01-07T02:10:10;59356.41;;;-144.89;100.00
24651;BME280;12783;48.824;8.662;2024-01-07T02:12:39;59356.41;;;-144.89;100.00
24651;BME280;12783;48.824;8.662;2024-01-07T02:15:06;59356.41;;;-144.89;100.00
24651;BME280;12783;48.824;8.662;2024-01-07T02:17:33;59356.41;;;-144.89;100.00
24651;BME280;12783;48.824;8.662;2024-01-07T02:20:00;59356.41;;;-144.89;100.00
24651;BME280;12783;48.824;8.662;2024-01-07T02:22:27;59356.41;;;-144.89;100.00
24651;BME280;12783;48.824;8.662;2024-01-07T02:24:54;59356.41;;;-144.89;100.00
24651;BME280;12783;48.824;8.662;2024-01-07T02:27:21;59356.41;;;-144.89;100.00
24651;BME280;12783;48.824;8.662;2024-01-07T02:29:48;59356.41;;;-144.89;100.00
24651;BME280;12783;48.824;8.662;2024-01-07T02:32:14;59356.41;;;-144.89;100.00
24651;BME280;12783;48.824;8.662;2024-01-07T02:34:41;59356.41;;;-144.89;100.00
24651;BME280;12783;48.824;8.662;2024-01-07T02:37:08;59356.41;;;-144.89;100.00
24651;BME280;12783;48.824;8.662;2024-01-07T02:39:35;59356.41;;;-144.89;100.00
24651;BME280;12783;48.824;8.662;2024-01-07T02:42:02;59356.41;;;-144.89;100.00
24651;BME280;12783;48.824;8.662;2024-01-07T02:44:29;59356.41;;;-144.89;100.00
24651;BME280;12783;48.824;8.662;2024-01-07T02:46:56;59356.41;;;-144.89;100.00
24651;BME280;12783;48.824;8.662;2024-01-07T02:49:23;59356.41;;;-144.89;100.00
24651;BME280;12783;48.824;8.662;2024-01-07T02:51:50;59356.41;;;-144.89;100.00
24651;BME280;12783;48.824;8.662;2024-01-07T02:54:17;59356.41;;;-144.89;100.00
24651;BME280;12783;48.824;8.662;2024-01-07T02:56:44;59356.41;;;-144.89;100.00
24651;BME280;12783;48.824;8.662;2024-01-07T02:59:11;59356.41;;;-144.89;100.00
24651;BME280;12783;48.824;8.662;2024-01-07T03:01:38;59356.41;;;-144.89;100.00
24651;BME280;12783;48.824;8.662;2024-01-07T03:04:10;59356.41;;;-144.89;100.00
24651;BME280;12783;48.824;8.662;2024-01-07T03:06:37;59356.41;;;-144.89;100.00
24651;BME280;12783;48.824;8.662;2024-01-07T03:09:04;59356.41;;;-144.89;100.00
24651;BME280;12783;48.824;8.662;2024-01-07T03:11:31;59356.41;;;-144.89;100.00
24651;BME280;12783;48.824;8.662;2024-01-07T03:13:58;59356.41;;;-144.89;100.00
24651;BME280;12783;48.824;8.662;2024-01-07T03:16:26;59356.41;;;-144.89;100.00
24651;BME280;12783;48.824;8.662;2024-01-07T03:18:53;59356.41;;;-144.89;100.00
24651;BME280;12783;48.824;8.662;2024-01-07T03:21:23;59356.41;;;-144.89;100.00
24651;BME280;12783;48.824;8.662;2024-01-07T03:23:51;59356.41;;;-144.89;100.00
24651;BME280;12783;48.824;8.662;2024-01-07T03:26:19;59356.41;;;-144.89;100.00
24651;BME280;12783;48.824;8.662;2024-01-07T03:28:46;59356.41;;;-144.89;100.00
24651;BME280;12783;48.824;8.662;2024-01-07T03:31:15;59356.41;;;-144.89;100.00
24651;BME280;12783;48.824;8.662;2024-01-07T03:33:43;59356.41;;;-144.89;100.00
24651;BME280;12783;48.824;8.662;2024-01-07T03:36:13;59356.41;;;-144.89;100.00
24651;BME280;12783;48.824;8.662;2024-01-07T03:38:41;59356.41;;;-144.89;100.00
24651;BME280;12783;48.824;8.662;2024-01-07T03:41:08;59356.41;;;-144.89;100.00
24651;BME280;12783;48.824;8.662;2024-01-07T03:43:35;59356.41;;;-144.89;100.00
24651;BME280;12783;48.824;8.662;2024-01-07T03:46:01;59356.41;;;-144.89;100.00
24651;BME280;12783;48.824;8.662;2024-01-07T03:48:29;59356.41;;;-144.89;100.00
24651;BME280;12783;48.824;8.662;2024-01-07T03:50:56;59356.41;;;-144.89;100.00
24651;BME280;12783;48.824;8.662;2024-01-07T03:53:22;59356.41;;;-144.89;100.00
24651;BME280;12783;48.824;8.662;2024-01-07T03:55:50;59356.41;;;-144.89;100.00
24651;BME280;12783;48.824;8.662;2024-01-07T03:58:17;59356.41;;;-144.89;100.00
24651;BME280;12783;48.824;8.662;2024-01-07T04:00:43;59356.41;;;-144.89;100.00
24651;BME280;12783;48.824;8.662;2024-01-07T04:03:11;59356.41;;;-144.89;100.00
24651;BME280;12783;48.824;8.662;2024-01-07T04:05:38;59356.41;;;-144.89;100.00
24651;BME280;12783;48.824;8.662;2024-01-07T04:08:05;59356.41;;;-144.89;100.00
24651;BME280;12783;48.824;8.662;2024-01-07T04:10:32;59356.41;;;-144.89;100.00
24651;BME280;12783;48.824;8.662;2024-01-07T04:12:59;59356.41;;;-144.89;100.00
24651;BME280;12783;48.824;8.662;2024-01-07T04:15:26;59356.41;;;-144.89;100.00
24651;BME280;12783;48.824;8.662;2024-01-07T04:17:53;59356.41;;;-144.89;100.00
24651;BME280;12783;48.824;8.662;2024-01-07T04:20:20;59356.41;;;-144.89;100.00
24651;BME280;12783;48.824;8.662;2024-01-07T04:22:47;59356.41;;;-144.89;100.00
24651;BME280;12783;48.824;8.662;2024-01-07T04:25:14;59356.41;;;-144.89;100.00
24651;BME280;12783;48.824;8.662;2024-01-07T04:27:41;59356.41;;;-144.89;100.00
24651;BME280;12783;48.824;8.662;2024-01-07T04:30:08;59356.41;;;-144.89;100.00
24651;BME280;12783;48.824;8.662;2024-01-07T04:32:36;59356.41;;;-144.89;100.00
24651;BME280;12783;48.824;8.662;2024-01-07T04:35:03;59356.41;;;-144.89;100.00
24651;BME280;12783;48.824;8.662;2024-01-07T04:37:30;59356.41;;;-144.89;100.00
24651;BME280;12783;48.824;8.662;2024-01-07T04:39:57;59356.41;;;-144.89;100.00
24651;BME280;12783;48.824;8.662;2024-01-07T04:42:24;59356.41;;;-144.89;100.00
24651;BME280;12783;48.824;8.662;2024-01-07T04:44:51;59356.41;;;-144.89;100.00
24651;BME280;12783;48.824;8.662;2024-01-07T04:47:29;59356.41;;;-144.89;100.00
24651;BME280;12783;48.824;8.662;2024-01-07T04:49:57;59356.41;;;-144.89;100.00
24651;BME280;12783;48.824;8.662;2024-01-07T04:52:24;59356.41;;;-144.89;100.00
24651;BME280;12783;48.824;8.662;2024-01-07T04:55:00;65816.06;;;7.34;100.00
24651;BME280;12783;48.824;8.662;2024-01-07T04:57:27;65745.56;;;7.12;100.00
24651;BME280;12783;48.824;8.662;2024-01-07T04:59:55;66946.88;;;7.03;100.00
24651;BME280;12783;48.824;8.662;2024-01-07T05:02:21;67902.94;;;7.10;100.00
24651;BME280;12783;48.824;8.662;2024-01-07T05:04:48;68502.69;;;7.20;100.00
24651;BME280;12783;48.824;8.662;2024-01-07T05:07:15;69944.16;;;7.44;100.00
24651;BME280;12783;48.824;8.662;2024-01-07T05:09:42;69013.31;;;7.35;100.00
24651;BME280;12783;48.824;8.662;2024-01-07T05:12:09;68923.41;;;7.24;100.00
24651;BME280;12783;48.824;8.662;2024-01-07T05:14:37;68786.94;;;7.18;100.00
24651;BME280;12783;48.824;8.662;2024-01-07T05:17:04;67906.84;;;7.04;100.00
24651;BME280;12783;48.824;8.662;2024-01-07T05:19:31;68313.94;;;7.17;100.00
24651;BME280;12783;48.824;8.662;2024-01-07T05:21:58;69915.75;;;7.53;100.00
24651;BME280;12783;48.824;8.662;2024-01-07T05:24:25;68777.66;;;7.32;100.00
24651;BME280;12783;48.824;8.662;2024-01-07T05:26:53;67200.09;;;6.95;100.00
24651;BME280;12783;48.824;8.662;2024-01-07T05:29:19;68950.56;;;7.22;100.00
24651;BME280;12783;48.824;8.662;2024-01-07T05:31:46;68728.38;;;7.30;100.00
24651;BME280;12783;48.824;8.662;2024-01-07T05:34:14;68292.66;;;7.19;100.00
24651;BME280;12783;48.824;8.662;2024-01-07T05:36:41;68551.53;;;7.26;100.00
24651;BME280;12783;48.824;8.662;2024-01-07T05:39:08;67907.53;;;7.16;100.00
24651;BME280;12783;48.824;8.662;2024-01-07T05:41:37;69937.94;;;7.56;100.00
24651;BME280;12783;48.824;8.662;2024-01-07T05:44:07;67787.25;;;7.08;100.00
24651;BME280;12783;48.824;8.662;2024-01-07T05:46:40;68001.94;;;7.20;100.00
24651;BME280;12783;48.824;8.662;2024-01-07T05:49:08;69437.75;;;7.28;100.00
24651;BME280;12783;48.824;8.662;2024-01-07T05:51:39;68427.47;;;7.08;100.00
24651;BME280;12783;48.824;8.662;2024-01-07T05:54:07;67847.22;;;6.89;100.00
24651;BME280;12783;48.824;8.662;2024-01-07T05:56:40;69706.94;;;7.42;100.00
24651;BME280;12783;48.824;8.662;2024-01-07T05:59:08;68318.03;;;7.09;100.00
24651;BME280;12783;48.824;8.662;2024-01-07T06:01:35;68338.13;;;7.06;100.00
24651;BME280;12783;48.824;8.662;2024-01-07T06:04:02;68008.22;;;6.99;100.00
24651;BME280;12783;48.824;8.662;2024-01-07T06:06:30;68432.97;;;7.12;100.00
24651;BME280;12783;48.824;8.662;2024-01-07T06:08:57;68136.88;;;7.03;100.00
24651;BME280;12783;48.824;8.662;2024-01-07T06:11:24;67600.88;;;7.02;100.00
24651;BME280;12783;48.824;8.662;2024-01-07T06:13:51;68375.78;;;7.11;100.00
24651;BME280;12783;48.824;8.662;2024-01-07T06:16:18;67939.34;;;6.96;100.00
24651;BME280;12783;48.824;8.662;2024-01-07T06:18:45;67722.41;;;6.75;100.00
24651;BME280;12783;48.824;8.662;2024-01-07T06:21:12;68958.28;;;6.96;100.00
24651;BME280;12783;48.824;8.662;2024-01-07T06:23:39;68763.94;;;7.03;100.00
24651;BME280;12783;48.824;8.662;2024-01-07T06:26:06;68440.47;;;6.97;100.00
24651;BME280;12783;48.824;8.662;2024-01-07T06:28:33;69033.53;;;7.01;100.00
24651;BME280;12783;48.824;8.662;2024-01-07T06:31:03;69469.44;;;7.20;100.00
24651;BME280;12783;48.824;8.662;2024-01-07T06:33:31;68954.50;;;7.08;100.00
24651;BME280;12783;48.824;8.662;2024-01-07T06:35:58;68230.75;;;6.93;100.00
24651;BME280;12783;48.824;8.662;2024-01-07T06:38:25;68423.84;;;7.05;100.00
24651;BME280;12783;48.824;8.662;2024-01-07T06:40:52;68579.09;;;7.07;100.00
24651;BME280;12783;48.824;8.662;2024-01-07T06:43:23;68194.28;;;6.89;100.00
24651;BME280;12783;48.824;8.662;2024-01-07T06:45:50;68100.28;;;6.87;100.00
24651;BME280;12783;48.824;8.662;2024-01-07T06:48:17;69021.81;;;7.07;100.00
24651;BME280;12783;48.824;8.662;2024-01-07T06:50:43;68366.09;;;7.03;100.00
24651;BME280;12783;48.824;8.662;2024-01-07T06:53:10;67934.38;;;6.87;100.00
24651;BME280;12783;48.824;8.662;2024-01-07T06:55:37;68237.03;;;6.89;100.00
24651;BME280;12783;48.824;8.662;2024-01-07T06:58:04;67687.31;;;6.95;100.00
24651;BME280;12783;48.824;8.662;2024-01-07T07:00:31;68069.44;;;6.92;100.00
24651;BME280;12783;48.824;8.662;2024-01-07T07:02:59;68354.94;;;6.96;100.00
24651;BME280;12783;48.824;8.662;2024-01-07T07:05:26;67883.75;;;6.80;100.00
24651;BME280;12783;48.824;8.662;2024-01-07T07:07:52;68052.31;;;6.80;100.00
24651;BME280;12783;48.824;8.662;2024-01-07T07:10:21;68146.34;;;6.75;100.00
24651;BME280;12783;48.824;8.662;2024-01-07T07:12:48;68290.34;;;6.90;100.00
24651;BME280;12783;48.824;8.662;2024-01-07T07:15:17;68864.69;;;7.03;100.00
24651;BME280;12783;48.824;8.662;2024-01-07T07:17:44;68480.19;;;6.95;100.00
24651;BME280;12783;48.824;8.662;2024-01-07T07:20:12;69012.75;;;7.12;100.00
24651;BME280;12783;48.824;8.662;2024-01-07T07:22:39;68600.78;;;7.01;100.00
24651;BME280;12783;48.824;8.662;2024-01-07T07:25:06;68326.97;;;6.99;100.00
24651;BME280;12783;48.824;8.662;2024-01-07T07:27:33;67829.91;;;6.79;100.00
24651;BME280;12783;48.824;8.662;2024-01-07T07:30:00;68720.50;;;6.88;100.00
24651;BME280;12783;48.824;8.662;2024-01-07T07:32:27;68896.16;;;7.12;100.00
24651;BME280;12783;48.824;8.662;2024-01-07T07:34:54;69300.63;;;7.28;100.00
24651;BME280;12783;48.824;8.662;2024-01-07T07:37:21;67970.34;;;6.96;100.00
24651;BME280;12783;48.824;8.662;2024-01-07T07:39:48;68586.59;;;7.04;100.00
24651;BME280;12783;48.824;8.662;2024-01-07T07:42:16;68044.94;;;6.94;100.00
24651;BME280;12783;48.824;8.662;2024-01-07T07:44:43;68404.81;;;6.98;100.00
24651;BME280;12783;48.824;8.662;2024-01-07T07:47:10;68933.81;;;7.04;100.00
24651;BME280;12783;48.824;8.662;2024-01-07T07:49:39;68488.31;;;7.06;100.00
24651;BME280;12783;48.824;8.662;2024-01-07T07:52:08;68675.56;;;7.04;100.00
24651;BME280;12783;48.824;8.662;2024-01-07T07:54:41;68195.31;;;6.85;100.00
24651;BME280;12783;48.824;8.662;2024-01-07T07:57:07;68737.59;;;7.03;100.00
24651;BME280;12783;48.824;8.662;2024-01-07T07:59:35;68508.75;;;6.99;100.00
24651;BME280;12783;48.824;8.662;2024-01-07T08:02:02;67841.56;;;6.69;100.00
24651;BME280;12783;48.824;8.662;2024-01-07T08:04:29;67676.22;;;6.58;100.00
24651;BME280;12783;48.824;8.662;2024-01-07T08:06:56;67676.22;;;6.58;100.00
24651;BME280;12783;48.824;8.662;2024-01-07T08:09:23;68736.28;;;6.75;100.00
24651;BME280;12783;48.824;8.662;2024-01-07T08:11:52;69022.16;;;6.96;100.00
24651;BME280;12783;48.824;8.662;2024-01-07T08:14:19;67815.28;;;6.62;100.00
24651;BME280;12783;48.824;8.662;2024-01-07T08:16:46;68484.63;;;6.69;100.00
24651;BME280;12783;48.824;8.662;2024-01-07T08:19:13;68451.63;;;6.77;100.00
24651;BME280;12783;48.824;8.662;2024-01-07T08:21:40;68893.41;;;6.92;100.00
24651;BME280;12783;48.824;8.662;2024-01-07T08:24:07;67632.34;;;6.68;100.00
24651;BME280;12783;48.824;8.662;2024-01-07T08:26:34;67643.22;;;6.59;100.00
24651;BME280;12783;48.824;8.662;2024-01-07T08:29:00;67875.72;;;6.51;100.00
24651;BME280;12783;48.824;8.662;2024-01-07T08:31:28;67789.25;;;6.54;100.00
24651;BME280;12783;48.824;8.662;2024-01-07T08:33:55;69013.69;;;6.80;100.00
24651;BME280;12783;48.824;8.662;2024-01-07T08:36:22;68034.81;;;6.65;100.00
24651;BME280;12783;48.824;8.662;2024-01-07T08:38:49;68504.72;;;6.93;100.00
24651;BME280;12783;48.824;8.662;2024-01-07T08:41:16;68905.94;;;7.20;100.00
24651;BME280;12783;48.824;8.662;2024-01-07T08:43:44;67861.38;;;6.92;100.00
24651;BME280;12783;48.824;8.662;2024-01-07T08:46:11;68369.53;;;6.95;100.00
24651;BME280;12783;48.824;8.662;2024-01-07T08:48:40;68227.22;;;7.08;100.00
24651;BME280;12783;48.824;8.662;2024-01-07T08:51:07;67884.72;;;7.08;100.00
24651;BME280;12783;48.824;8.662;2024-01-07T08:53:35;67108.94;;;6.75;100.00
24651;BME280;12783;48.824;8.662;2024-01-07T08:56:02;67516.97;;;6.64;100.00
24651;BME280;12783;48.824;8.662;2024-01-07T08:58:29;67577.06;;;6.68;100.00
24651;BME280;12783;48.824;8.662;2024-01-07T09:00:56;67186.78;;;6.52;100.00
24651;BME280;12783;48.824;8.662;2024-01-07T09:03:23;68187.84;;;6.81;100.00
24651;BME280;12783;48.824;8.662;2024-01-07T09:05:50;67092.53;;;6.48;100.00
24651;BME280;12783;48.824;8.662;2024-01-07T09:08:17;67944.56;;;6.78;100.00
24651;BME280;12783;48.824;8.662;2024-01-07T09:10:44;67030.56;;;6.49;100.00
24651;BME280;12783;48.824;8.662;2024-01-07T09:13:10;67491.00;;;6.55;100.00
24651;BME280;12783;48.824;8.662;2024-01-07T09:15:37;67774.59;;;6.79;100.00
24651;BME280;12783;48.824;8.662;2024-01-07T09:18:05;67263.56;;;6.81;100.00
24651;BME280;12783;48.824;8.662;2024-01-07T09:20:33;68100.75;;;7.08;100.00
24651;BME280;12783;48.824;8.662;2024-01-07T09:23:00;67492.41;;;6.95;100.00
24651;BME280;12783;48.824;8.662;2024-01-07T09:25:27;66935.22;;;6.75;100.00
24651;BME280;12783;48.824;8.662;2024-01-07T09:27:54;67455.25;;;6.74;100.00
24651;BME280;12783;48.824;8.662;2024-01-07T09:30:21;67257.34;;;6.78;100.00
24651;BME280;12783;48.824;8.662;2024-01-07T09:32:48;67247.28;;;6.74;100.00
24651;BME280;12783;48.824;8.662;2024-01-07T09:35:15;67357.00;;;6.76;100.00
24651;BME280;12783;48.824;8.662;2024-01-07T09:37:42;67232.56;;;6.82;100.00
24651;BME280;12783;48.824;8.662;2024-01-07T09:40:10;66275.09;;;6.41;100.00
24651;BME280;12783;48.824;8.662;2024-01-07T09:42:38;66691.13;;;6.49;100.00
24651;BME280;12783;48.824;8.662;2024-01-07T09:45:05;66445.16;;;6.38;100.00
24651;BME280;12783;48.824;8.662;2024-01-07T09:47:32;66927.00;;;6.45;100.00
24651;BME280;12783;48.824;8.662;2024-01-07T09:50:01;66346.66;;;6.37;100.00
24651;BME280;12783;48.824;8.662;2024-01-07T09:52:30;66112.75;;;6.26;100.00
24651;BME280;12783;48.824;8.662;2024-01-07T09:55:02;65857.03;;;6.12;100.00
24651;BME280;12783;48.824;8.662;2024-01-07T09:57:30;66055.19;;;6.24;100.00
24651;BME280;12783;48.824;8.662;2024-01-07T09:59:57;65275.28;;;5.99;100.00
24651;BME280;12783;48.824;8.662;2024-01-07T10:02:25;65673.31;;;6.10;100.00
24651;BME280;12783;48.824;8.662;2024-01-07T10:04:52;65337.19;;;5.94;100.00
24651;BME280;12783;48.824;8.662;2024-01-07T10:07:19;65925.13;;;6.18;100.00
24651;BME280;12783;48.824;8.662;2024-01-07T10:09:46;65910.28;;;6.26;100.00
24651;BME280;12783;48.824;8.662;2024-01-07T10:12:13;65804.22;;;6.32;100.00
24651;BME280;12783;48.824;8.662;2024-01-07T10:14:40;65682.97;;;6.34;100.00
24651;BME280;12783;48.824;8.662;2024-01-07T10:17:17;65670.09;;;6.28;100.00
24651;BME280;12783;48.824;8.662;2024-01-07T10:19:45;66031.94;;;6.45;100.00
24651;BME280;12783;48.824;8.662;2024-01-07T10:22:13;65858.31;;;6.40;100.00
24651;BME280;12783;48.824;8.662;2024-01-07T10:24:42;65373.28;;;6.30;100.00
24651;BME280;12783;48.824;8.662;2024-01-07T10:27:10;65064.88;;;6.18;100.00
24651;BME280;12783;48.824;8.662;2024-01-07T10:29:37;64959.81;;;6.13;100.00
24651;BME280;12783;48.824;8.662;2024-01-07T10:32:05;65246.81;;;6.23;100.00
24651;BME280;12783;48.824;8.662;2024-01-07T10:34:35;64980.56;;;6.11;100.00
24651;BME280;12783;48.824;8.662;2024-01-07T10:37:05;65085.16;;;6.06;100.00
24651;BME280;12783;48.824;8.662;2024-01-07T10:39:32;64662.97;;;5.83;100.00
24651;BME280;12783;48.824;8.662;2024-01-07T10:42:00;64976.78;;;6.10;100.00
24651;BME280;12783;48.824;8.662;2024-01-07T10:44:30;64742.19;;;5.97;100.00
24651;BME280;12783;48.824;8.662;2024-01-07T10:46:58;64747.44;;;5.97;100.00
24651;BME280;12783;48.824;8.662;2024-01-07T10:49:27;64140.13;;;5.76;100.00
24651;BME280;12783;48.824;8.662;2024-01-07T10:52:06;64779.47;;;6.03;100.00
24651;BME280;12783;48.824;8.662;2024-01-07T10:54:35;64134.78;;;5.92;100.00
24651;BME280;12783;48.824;8.662;2024-01-07T11:00:03;63691.66;;;5.76;100.00
24651;BME280;12783;48.824;8.662;2024-01-07T11:02:46;64026.63;;;5.87;100.00
24651;BME280;12783;48.824;8.662;2024-01-07T11:05:40;63981.09;;;5.89;100.00
24651;BME280;12783;48.824;8.662;2024-01-07T11:08:38;65027.91;;;6.36;100.00
24651;BME280;12783;48.824;8.662;2024-01-07T11:11:21;65128.59;;;6.49;100.00
24651;BME280;12783;48.824;8.662;2024-01-07T11:13:51;63749.50;;;5.84;100.00
24651;BME280;12783;48.824;8.662;2024-01-07T11:16:41;64082.59;;;5.90;100.00
24651;BME280;12783;48.824;8.662;2024-01-07T11:19:08;64311.13;;;6.07;100.00
24651;BME280;12783;48.824;8.662;2024-01-07T11:21:36;64446.34;;;6.19;100.00
24651;BME280;12783;48.824;8.662;2024-01-07T11:24:03;64729.47;;;6.28;100.00
24651;BME280;12783;48.824;8.662;2024-01-07T11:26:31;64446.59;;;6.22;100.00
24651;BME280;12783;48.824;8.662;2024-01-07T11:28:58;64603.47;;;6.19;100.00
24651;BME280;12783;48.824;8.662;2024-01-07T11:31:47;64241.59;;;6.22;100.00
24651;BME280;12783;48.824;8.662;2024-01-07T11:34:43;64462.50;;;6.29;100.00
24651;BME280;12783;48.824;8.662;2024-01-07T11:37:11;64038.19;;;6.16;100.00
24651;BME280;12783;48.824;8.662;2024-01-07T11:39:46;63885.72;;;5.97;100.00
24651;BME280;12783;48.824;8.662;2024-01-07T11:42:13;63040.34;;;5.45;100.00
24651;BME280;12783;48.824;8.662;2024-01-07T11:44:47;62914.75;;;5.50;100.00
24651;BME280;12783;48.824;8.662;2024-01-07T11:47:19;63639.09;;;5.88;100.00
24651;BME280;12783;48.824;8.662;2024-01-07T11:49:47;63935.16;;;6.04;100.00
24651;BME280;12783;48.824;8.662;2024-01-07T11:52:15;63679.53;;;5.82;100.00
24651;BME280;12783;48.824;8.662;2024-01-07T11:54:42;63192.63;;;5.74;100.00
24651;BME280;12783;48.824;8.662;2024-01-07T11:57:10;63296.25;;;5.63;100.00
24651;BME280;12783;48.824;8.662;2024-01-07T11:59:37;63815.63;;;5.89;100.00
24651;BME280;12783;48.824;8.662;2024-01-07T12:02:09;64220.06;;;6.05;100.00
24651;BME280;12783;48.824;8.662;2024-01-07T12:04:36;64051.56;;;6.07;100.00
24651;BME280;12783;48.824;8.662;2024-01-07T12:07:04;64168.06;;;6.06;100.00
24651;BME280;12783;48.824;8.662;2024-01-07T12:09:31;63575.13;;;5.90;100.00
24651;BME280;12783;48.824;8.662;2024-01-07T12:11:59;63705.09;;;5.86;100.00
24651;BME280;12783;48.824;8.662;2024-01-07T12:14:27;64128.53;;;5.98;100.00
24651;BME280;12783;48.824;8.662;2024-01-07T12:16:55;64106.28;;;6.02;100.00
24651;BME280;12783;48.824;8.662;2024-01-07T12:19:22;64387.63;;;6.05;100.00
24651;BME280;12783;48.824;8.662;2024-01-07T12:22:05;64256.88;;;6.17;100.00
24651;BME280;12783;48.824;8.662;2024-01-07T12:24:33;63832.97;;;5.95;100.00
24651;BME280;12783;48.824;8.662;2024-01-07T12:27:05;63955.03;;;5.91;100.00
24651;BME280;12783;48.824;8.662;2024-01-07T12:29:33;59356.41;;;-144.89;100.00
24651;BME280;12783;48.824;8.662;2024-01-07T12:31:59;59356.41;;;-144.89;100.00
24651;BME280;12783;48.824;8.662;2024-01-07T12:34:27;59356.41;;;-144.89;100.00
24651;BME280;12783;48.824;8.662;2024-01-07T12:36:54;59356.41;;;-144.89;100.00
24651;BME280;12783;48.824;8.662;2024-01-07T12:39:22;59356.41;;;-144.89;100.00
24651;BME280;12783;48.824;8.662;2024-01-07T12:41:53;59356.41;;;-144.89;100.00
24651;BME280;12783;48.824;8.662;2024-01-07T12:44:20;59356.41;;;-144.89;100.00
24651;BME280;12783;48.824;8.662;2024-01-07T12:46:47;59356.41;;;-144.89;100.00
24651;BME280;12783;48.824;8.662;2024-01-07T12:49:15;59356.41;;;-144.89;100.00
24651;BME280;12783;48.824;8.662;2024-01-07T12:51:42;59356.41;;;-144.89;100.00
24651;BME280;12783;48.824;8.662;2024-01-07T12:54:09;59356.41;;;-144.89;100.00